INFORMACIÓN METAR y TAF
METAR FOR LICC
ADDS - METARS form results

(0612 UTC 28 February 2021)
Data provider http://aviationweather.gov/metar/data/
 
METAR text: LICC 280550Z 24004KT 6000 NSC 04/04 Q1023
Conditions at: LICC (CATANIA/FONTANAR, IT) observed 0550 UTC 28 February 2021
Temperature: 4.0°C (39°F)
Dewpoint: 4.0°C (39°F) [RH = 100%]
Pressure (altimeter): 30.21 inches Hg (1023.0 mb)
Winds: from the WSW (240 degrees) at 5 MPH (4 knots; 2.1 m/s)
Visibility: 4 miles ( 6 km)
Ceiling: at least 12,000 feet AGL
Clouds: sky clear below 12,000 feet AGL
Weather: no significant weather observed at this time

METAR text: LICC 280520Z 24006KT 7000 NSC 04/03 Q1023
Conditions at: LICC (CATANIA/FONTANAR, IT) observed 0520 UTC 28 February 2021
Temperature: 4.0°C (39°F)
Dewpoint: 3.0°C (37°F) [RH = 93%]
Pressure (altimeter): 30.21 inches Hg (1023.0 mb)
Winds: from the WSW (240 degrees) at 7 MPH (6 knots; 3.1 m/s)
Visibility: 4 miles ( 7 km)
Ceiling: at least 12,000 feet AGL
Clouds: sky clear below 12,000 feet AGL
Weather: no significant weather observed at this time

Forecast for: LICC (CATANIA/FONTANAR, IT)
Text: TAF LICC 280500Z 2806/0106 VRB05KT CAVOK
Forecast period: 0600 to 0800 UTC 28 February 2021
Forecast type: FROM: standard forecast or significant change
Winds: variable direction winds at 6 MPH (5 knots; 2.6 m/s)
Visibility: 6 or more miles (10+ km)
Ceiling: unknown
Clouds: missing
Weather: NSW  (no significant weather)
Text: TEMPO 2806/2808 2000 BCFG BKN002
Forecast period: 0600 to 0800 UTC 28 February 2021
Forecast type: TEMPORARY: The following changes expected for less than half the time period
Visibility: 1.24 miles (2.00 km)
Ceiling: 200 feet AGL
Clouds: broken clouds at 200 feet AGL
Weather: BCFG  (patches of fog)
Text: BECMG 2808/2810 06012KT
Forecast period: 0800 UTC 28 February 2021 to 0600 UTC 01 March 2021
Forecast type: BECOMING: Conditions expected to become as follows by 1000 UTC 28 February 2021
Winds: from the ENE (60 degrees) at 14 MPH (12 knots; 6.2 m/s)
Visibility: 6 or more miles (10+ km)
Ceiling: unknown
Clouds: missing
Weather: NSW  (no significant weather)

 MAPA DE AEROPUERTO

 INFORMACIÓN DE PISTA